Pat Boone — WDH3305 — position and weather

sailwx.info

Track history (hours):
 
Tides and Currents Weather Stations Pressure Air Temp Water Temp Dewpoint Dewpoint Depression Visibility Wind Speed Wind Dir Waves Ship Positions

Pat Boone

Owner: Boone Towing, Channelview, TX. More information available from US FCC via Universal Licensing System and Coast Guard Vessel Documentation Center.

Last reported at 2017-Dec-11 17:00 UTC. Time now 2017-Dec-14 13:12 UTC.
Position N 29°47' W 095°04'.

Length 15 m; draft 3 m.

MMSI: 367606370.

Date/timePositionNaut miles runAvg speedWind from/ knotsBaromVisibWave heightAir tempDewpointWater temp
2017-Dec-11 17:00N 29°47' W 095°04'0 0.0
2017-Dec-11 15:01N 29°47' W 095°04'0 0.0
2017-Dec-11 14:56N 29°47' W 095°04'0 0.0
2017-Dec-11 14:17N 29°47' W 095°04'0 0.0
2017-Dec-11 13:58N 29°47' W 095°04'0 0.0
2017-Dec-11 13:27N 29°47' W 095°04'0 0.0
2017-Dec-11 12:48N 29°47' W 095°04'0 0.0
2017-Dec-11 12:25N 29°47' W 095°04'0 0.1
2017-Dec-11 12:00N 29°47' W 095°04'2 3.1
2017-Dec-11 11:19N 29°46' W 095°06'0 0.2
2017-Dec-11 11:00N 29°46' W 095°06'2 4.3
2017-Dec-11 10:28N 29°44' W 095°07'3 5.1
2017-Dec-11 09:59N 29°45' W 095°10'0 0.7
2017-Dec-11 09:29N 29°45' W 095°10'3 6.1
2017-Dec-11 09:00N 29°44' W 095°07'3 2.8
2017-Dec-11 08:01N 29°47' W 095°05'0 2.0
2017-Dec-11 07:59N 29°47' W 095°05'1 2.6
2017-Dec-11 07:29N 29°46' W 095°06'0 0.3
2017-Dec-11 06:51N 29°46' W 095°06'0 1.1
2017-Dec-11 06:29N 29°46' W 095°06'1 2.6
2017-Dec-11 06:00N 29°47' W 095°05'1 1.5
2017-Dec-11 05:27N 29°46' W 095°05'1 1.2
2017-Dec-11 04:52N 29°46' W 095°06'0 0.0
2017-Dec-11 02:32N 29°46' W 095°06'0 0.2
2017-Dec-11 02:22N 29°46' W 095°06'0 0.1
2017-Dec-11 01:57N 29°46' W 095°06'1 0.5
2017-Dec-11 00:29N 29°47' W 095°06'2 0.3
2017-Dec-10 18:16N 29°45' W 095°06'2 6.5
2017-Dec-10 17:59N 29°44' W 095°08'3 6.3
2017-Dec-10 17:29N 29°45' W 095°12'0 0.4
2017-Dec-10 16:59N 29°45' W 095°12'0 0.0
2017-Dec-10 16:30N 29°45' W 095°12'0 0.0
2017-Dec-10 16:00N 29°45' W 095°12'0 0.0
2017-Dec-10 15:30N 29°45' W 095°12'0 0.0
2017-Dec-10 15:00N 29°45' W 095°12'0 0.0
2017-Dec-10 14:25N 29°45' W 095°12'0 0.0
2017-Dec-10 14:00N 29°45' W 095°12'0 0.0
2017-Dec-10 13:30N 29°45' W 095°12'0 0.1
2017-Dec-10 13:00N 29°45' W 095°12'0 0.0
2017-Dec-10 12:30N 29°45' W 095°12'0 0.0
2017-Dec-10 12:00N 29°45' W 095°12'0 0.0
2017-Dec-10 11:30N 29°45' W 095°12'0 0.0
2017-Dec-10 11:00N 29°45' W 095°12'0 0.0
2017-Dec-10 10:30N 29°45' W 095°12'0 0.0
2017-Dec-10 10:00N 29°45' W 095°12'0 0.0
2017-Dec-10 09:30N 29°45' W 095°12'0 0.0
2017-Dec-10 09:00N 29°45' W 095°12'0 0.0
2017-Dec-10 08:30N 29°45' W 095°12'0 0.0
2017-Dec-10 08:00N 29°45' W 095°12'0 0.0
2017-Dec-10 07:30N 29°45' W 095°12'0 0.0
2017-Dec-10 07:00N 29°45' W 095°12'0 0.0
2017-Dec-10 06:30N 29°45' W 095°12'0 0.0
2017-Dec-10 06:00N 29°45' W 095°12'0 0.0
2017-Dec-10 05:30N 29°45' W 095°12'0 0.0
2017-Dec-10 05:00N 29°45' W 095°12'0 0.0
2017-Dec-10 04:30N 29°45' W 095°12'0 0.0
2017-Dec-10 04:00N 29°45' W 095°12'0 0.0
2017-Dec-10 03:30N 29°45' W 095°12'0 0.0
2017-Dec-10 02:59N 29°45' W 095°12'0 0.0
2017-Dec-10 02:30N 29°45' W 095°12'0 0.0
2017-Dec-10 02:00N 29°45' W 095°12'0 0.0
2017-Dec-10 01:30N 29°45' W 095°12'2 3.8
2017-Dec-10 01:00N 29°44' W 095°09'4 0.4
2017-Dec-09 15:15N 29°47' W 095°06'0 0.0
2017-Dec-09 15:00N 29°47' W 095°06'0 0.0
2017-Dec-09 14:14N 29°47' W 095°06'0 0.0
2017-Dec-09 14:00N 29°47' W 095°06'0 0.2
2017-Dec-09 13:29N 29°47' W 095°06'0 0.2
2017-Dec-09 12:48N 29°47' W 095°06'0 0.0
2017-Dec-09 12:25N 29°47' W 095°06'0 0.0
2017-Dec-09 11:57N 29°47' W 095°06'0 0.0
2017-Dec-09 11:29N 29°47' W 095°06'0 0.0
2017-Dec-09 10:38N 29°47' W 095°06'0 0.0
2017-Dec-09 08:39N 29°47' W 095°06'0 0.6
2017-Dec-09 08:26N 29°47' W 095°06'2 3.7
2017-Dec-09 07:58N 29°45' W 095°06'3 6.6
2017-Dec-09 07:30N 29°44' W 095°09'3 5.8
2017-Dec-09 06:59N 29°44' W 095°12'3 5.8
2017-Dec-09 06:30N 29°44' W 095°16'2 3.0
2017-Dec-09 06:00N 29°45' W 095°17'1 3.0
2017-Dec-09 05:30N 29°44' W 095°16'3 6.1
2017-Dec-09 04:59N 29°44' W 095°12'3 6.6
2017-Dec-09 04:30N 29°44' W 095°09'3 2.5
2017-Dec-09 03:14N 29°46' W 095°05'0 0.3
2017-Dec-09 03:00N 29°46' W 095°05'0 0.1
2017-Dec-09 01:19N 29°46' W 095°05'1 0.6
2017-Dec-08 23:08N 29°46' W 095°07'0 0.0
2017-Dec-08 22:35N 29°46' W 095°07'1 0.4
2017-Dec-08 19:40N 29°45' W 095°06'2 6.8
2017-Dec-08 19:25N 29°44' W 095°08'3 6.7
2017-Dec-08 18:54N 29°44' W 095°12'3 6.2
2017-Dec-08 18:25N 29°44' W 095°15'2 2.0
2017-Dec-08 17:33N 29°44' W 095°17'1 5.7
2017-Dec-08 17:25N 29°44' W 095°17'1 1.2
2017-Dec-08 16:51N 29°44' W 095°16'1 2.9
2017-Dec-08 16:26N 29°43' W 095°14'3 5.9
2017-Dec-08 16:00N 29°44' W 095°12'3 5.9
2017-Dec-08 15:30N 29°44' W 095°09'3 0.4
2017-Dec-08 06:48N 29°46' W 095°05'2 5.9
2017-Dec-08 06:29N 29°44' W 095°07'4 6.3
2017-Dec-08 05:55N 29°45' W 095°11'3 6.1
2017-Dec-08 05:27N 29°44' W 095°14'2 3.7
2017-Dec-08 04:59N 29°44' W 095°16'0 0.5
2017-Dec-08 04:30N 29°44' W 095°15'3 5.8
2017-Dec-08 03:59N 29°44' W 095°12'2 1.2
2017-Dec-08 02:42N 29°45' W 095°11'0 0.2
2017-Dec-08 02:11N 29°45' W 095°10'0 0.5
2017-Dec-08 02:00N 29°45' W 095°11'2 3.8
2017-Dec-08 01:30N 29°44' W 095°09'3 4.6
2017-Dec-08 00:49N 29°46' W 095°06'1 2.0
2017-Dec-08 00:29N 29°46' W 095°05'3 6.7
2017-Dec-08 00:00N 29°44' W 095°09'2 2.7
2017-Dec-07 23:04N 29°46' W 095°11'1 3.1
2017-Dec-07 22:53N 29°45' W 095°10'0 1.2
2017-Dec-07 22:30N 29°45' W 095°10'4 0.8
2017-Dec-07 17:28N 29°46' W 095°05'3 5.6
2017-Dec-07 17:00N 29°44' W 095°03'3 5.3
2017-Dec-07 16:30N 29°42' W 095°01'2 4.9
2017-Dec-07 16:00N 29°41' W 094°58'2 3.8
2017-Dec-07 15:30N 29°41' W 094°56'1 3.0
2017-Dec-07 15:00N 29°42' W 094°55'1 1.7
2017-Dec-07 14:20N 29°43' W 094°56'1 0.1
2017-Dec-07 06:27N 29°43' W 094°57'2 3.0
2017-Dec-07 05:51N 29°42' W 094°55'1 3.0
2017-Dec-07 05:24N 29°41' W 094°56'1 3.4
2017-Dec-07 05:00N 29°41' W 094°57'3 6.0
2017-Dec-07 04:30N 29°42' W 095°00'2 3.3
2017-Dec-07 03:57N 29°44' W 095°02'2 3.4
2017-Dec-07 03:30N 29°42' W 095°01'3 5.9
2017-Dec-07 03:00N 29°41' W 094°58'2 3.9
2017-Dec-07 02:30N 29°41' W 094°55'  
2017-Dec-04 10:23N 29°45' W 095°12'0 0.0
2017-Dec-04 09:26N 29°45' W 095°12'0 0.0
2017-Dec-04 07:34N 29°45' W 095°12'0 0.0
2017-Dec-04 07:14N 29°45' W 095°12'0 0.0
2017-Dec-04 06:58N 29°45' W 095°12'0 0.0
2017-Dec-04 06:27N 29°45' W 095°12'0 0.0
2017-Dec-04 06:00N 29°45' W 095°12'0 0.0
2017-Dec-04 05:17N 29°45' W 095°12'0 0.0
2017-Dec-04 04:16N 29°45' W 095°12'0 0.0
2017-Dec-04 04:00N 29°45' W 095°12'0 0.0
2017-Dec-04 03:28N 29°45' W 095°12'0 0.0
2017-Dec-04 02:57N 29°45' W 095°12'0 0.0
2017-Dec-04 02:30N 29°45' W 095°12'0 0.0
2017-Dec-04 01:59N 29°45' W 095°12'0 0.0
2017-Dec-04 01:30N 29°45' W 095°12'0 0.0
2017-Dec-04 00:58N 29°45' W 095°12'0 0.0
2017-Dec-04 00:00N 29°45' W 095°12'0 0.0
2017-Dec-03 23:13N 29°45' W 095°12'0 0.0
2017-Dec-03 18:48N 29°45' W 095°12'0 0.0
2017-Dec-03 18:30N 29°45' W 095°12'0 0.0
2017-Dec-03 18:00N 29°45' W 095°12'0 0.0
2017-Dec-03 17:29N 29°45' W 095°12'2 3.0
2017-Dec-03 16:41N 29°43' W 095°14'1 1.8
2017-Dec-03 16:16N 29°44' W 095°15'0 1.2
2017-Dec-03 15:58N 29°43' W 095°15'3 3.6
2017-Dec-03 15:15N 29°44' W 095°12'2 3.9
2017-Dec-03 14:45N 29°45' W 095°10'1 3.8
2017-Dec-03 14:29N 29°44' W 095°09'3 0.3
2017-Dec-03 03:55N 29°46' W 095°06'1 1.4
2017-Dec-03 03:29N 29°46' W 095°05'3 5.7
2017-Dec-03 02:59N 29°44' W 095°08'3 3.7
2017-Dec-03 02:15N 29°45' W 095°11'1 2.3
2017-Dec-03 01:59N 29°45' W 095°10'2 3.4
2017-Dec-03 01:30N 29°45' W 095°12'2 3.9
2017-Dec-03 01:00N 29°44' W 095°09'4 3.1
2017-Dec-02 23:45N 29°47' W 095°06'0 0.0
2017-Dec-02 23:31N 29°47' W 095°06'3 0.8
2017-Dec-02 19:02N 29°44' W 095°08'0 8.1
2017-Dec-02 19:00N 29°44' W 095°09'4 6.5
2017-Dec-02 18:25N 29°43' W 095°13'2 5.8
2017-Dec-02 17:59N 29°44' W 095°16'3 5.2
2017-Dec-02 17:21N 29°44' W 095°12'2 6.3
2017-Dec-02 16:59N 29°44' W 095°09'3 0.6
2017-Dec-02 10:50N 29°46' W 095°06'3 4.4
2017-Dec-02 10:13N 29°44' W 095°08'3 6.0
2017-Dec-02 09:44N 29°45' W 095°11'1 6.1
2017-Dec-02 09:30N 29°44' W 095°13'3 2.6
2017-Dec-02 08:25N 29°44' W 095°16'2 5.2
2017-Dec-02 08:00N 29°43' W 095°13'3 5.8
2017-Dec-02 07:28N 29°45' W 095°10'3 6.0
2017-Dec-02 06:58N 29°44' W 095°07'2 3.2
2017-Dec-02 06:27N 29°46' W 095°06'0 0.1
2017-Dec-02 05:45N 29°46' W 095°06'1 2.1
2017-Dec-02 05:30N 29°46' W 095°05'1 0.1
2017-Dec-01 20:26N 29°46' W 095°04'3 5.9
2017-Dec-01 19:59N 29°44' W 095°02'3 6.0
2017-Dec-01 19:30N 29°42' W 094°60'2 3.5
2017-Dec-01 19:00N 29°41' W 094°58'2 3.4
2017-Dec-01 18:24N 29°41' W 094°55'2 1.6
2017-Dec-01 17:24N 29°42' W 094°56'  
Track history (hours):
 
Tides and Currents Weather Stations Pressure Air Temp Water Temp Dewpoint Dewpoint Depression Visibility Wind Speed Wind Dir Waves Ship Positions

Pat Boone

Owner: Boone Towing, Channelview, TX. More information available from US FCC via Universal Licensing System and Coast Guard Vessel Documentation Center.

Last reported at 2017-Dec-11 17:00 UTC. Time now 2017-Dec-14 13:12 UTC.
Position N 29°47' W 095°04'.

Length 15 m; draft 3 m.

MMSI: 367606370.

Date/timePositionNaut miles runAvg speedWind from/ knotsBaromVisibWave heightAir tempDewpointWater temp
2017-Dec-11 17:00N 29°47' W 095°04'0 0.0
2017-Dec-11 15:01N 29°47' W 095°04'0 0.0
2017-Dec-11 14:56N 29°47' W 095°04'0 0.0
2017-Dec-11 14:17N 29°47' W 095°04'0 0.0
2017-Dec-11 13:58N 29°47' W 095°04'0 0.0
2017-Dec-11 13:27N 29°47' W 095°04'0 0.0
2017-Dec-11 12:48N 29°47' W 095°04'0 0.0
2017-Dec-11 12:25N 29°47' W 095°04'0 0.1
2017-Dec-11 12:00N 29°47' W 095°04'2 3.1
2017-Dec-11 11:19N 29°46' W 095°06'0 0.2
2017-Dec-11 11:00N 29°46' W 095°06'2 4.3
2017-Dec-11 10:28N 29°44' W 095°07'3 5.1
2017-Dec-11 09:59N 29°45' W 095°10'0 0.7
2017-Dec-11 09:29N 29°45' W 095°10'3 6.1
2017-Dec-11 09:00N 29°44' W 095°07'3 2.8
2017-Dec-11 08:01N 29°47' W 095°05'0 2.0
2017-Dec-11 07:59N 29°47' W 095°05'1 2.6
2017-Dec-11 07:29N 29°46' W 095°06'0 0.3
2017-Dec-11 06:51N 29°46' W 095°06'0 1.1
2017-Dec-11 06:29N 29°46' W 095°06'1 2.6
2017-Dec-11 06:00N 29°47' W 095°05'1 1.5
2017-Dec-11 05:27N 29°46' W 095°05'1 1.2
2017-Dec-11 04:52N 29°46' W 095°06'0 0.0
2017-Dec-11 02:32N 29°46' W 095°06'0 0.2
2017-Dec-11 02:22N 29°46' W 095°06'0 0.1
2017-Dec-11 01:57N 29°46' W 095°06'1 0.5
2017-Dec-11 00:29N 29°47' W 095°06'2 0.3
2017-Dec-10 18:16N 29°45' W 095°06'2 6.5
2017-Dec-10 17:59N 29°44' W 095°08'3 6.3
2017-Dec-10 17:29N 29°45' W 095°12'0 0.4
2017-Dec-10 16:59N 29°45' W 095°12'0 0.0
2017-Dec-10 16:30N 29°45' W 095°12'0 0.0
2017-Dec-10 16:00N 29°45' W 095°12'0 0.0
2017-Dec-10 15:30N 29°45' W 095°12'0 0.0
2017-Dec-10 15:00N 29°45' W 095°12'0 0.0
2017-Dec-10 14:25N 29°45' W 095°12'0 0.0
2017-Dec-10 14:00N 29°45' W 095°12'0 0.0
2017-Dec-10 13:30N 29°45' W 095°12'0 0.1
2017-Dec-10 13:00N 29°45' W 095°12'0 0.0
2017-Dec-10 12:30N 29°45' W 095°12'0 0.0
2017-Dec-10 12:00N 29°45' W 095°12'0 0.0
2017-Dec-10 11:30N 29°45' W 095°12'0 0.0
2017-Dec-10 11:00N 29°45' W 095°12'0 0.0
2017-Dec-10 10:30N 29°45' W 095°12'0 0.0
2017-Dec-10 10:00N 29°45' W 095°12'0 0.0
2017-Dec-10 09:30N 29°45' W 095°12'0 0.0
2017-Dec-10 09:00N 29°45' W 095°12'0 0.0
2017-Dec-10 08:30N 29°45' W 095°12'0 0.0
2017-Dec-10 08:00N 29°45' W 095°12'0 0.0
2017-Dec-10 07:30N 29°45' W 095°12'0 0.0
2017-Dec-10 07:00N 29°45' W 095°12'0 0.0
2017-Dec-10 06:30N 29°45' W 095°12'0 0.0
2017-Dec-10 06:00N 29°45' W 095°12'0 0.0
2017-Dec-10 05:30N 29°45' W 095°12'0 0.0
2017-Dec-10 05:00N 29°45' W 095°12'0 0.0
2017-Dec-10 04:30N 29°45' W 095°12'0 0.0
2017-Dec-10 04:00N 29°45' W 095°12'0 0.0
2017-Dec-10 03:30N 29°45' W 095°12'0 0.0
2017-Dec-10 02:59N 29°45' W 095°12'0 0.0
2017-Dec-10 02:30N 29°45' W 095°12'0 0.0
2017-Dec-10 02:00N 29°45' W 095°12'0 0.0
2017-Dec-10 01:30N 29°45' W 095°12'2 3.8
2017-Dec-10 01:00N 29°44' W 095°09'4 0.4
2017-Dec-09 15:15N 29°47' W 095°06'0 0.0
2017-Dec-09 15:00N 29°47' W 095°06'0 0.0
2017-Dec-09 14:14N 29°47' W 095°06'0 0.0
2017-Dec-09 14:00N 29°47' W 095°06'0 0.2
2017-Dec-09 13:29N 29°47' W 095°06'0 0.2
2017-Dec-09 12:48N 29°47' W 095°06'0 0.0
2017-Dec-09 12:25N 29°47' W 095°06'0 0.0
2017-Dec-09 11:57N 29°47' W 095°06'0 0.0
2017-Dec-09 11:29N 29°47' W 095°06'0 0.0
2017-Dec-09 10:38N 29°47' W 095°06'0 0.0
2017-Dec-09 08:39N 29°47' W 095°06'0 0.6
2017-Dec-09 08:26N 29°47' W 095°06'2 3.7
2017-Dec-09 07:58N 29°45' W 095°06'3 6.6
2017-Dec-09 07:30N 29°44' W 095°09'3 5.8
2017-Dec-09 06:59N 29°44' W 095°12'3 5.8
2017-Dec-09 06:30N 29°44' W 095°16'2 3.0
2017-Dec-09 06:00N 29°45' W 095°17'1 3.0
2017-Dec-09 05:30N 29°44' W 095°16'3 6.1
2017-Dec-09 04:59N 29°44' W 095°12'3 6.6
2017-Dec-09 04:30N 29°44' W 095°09'3 2.5
2017-Dec-09 03:14N 29°46' W 095°05'0 0.3
2017-Dec-09 03:00N 29°46' W 095°05'0 0.1
2017-Dec-09 01:19N 29°46' W 095°05'1 0.6
2017-Dec-08 23:08N 29°46' W 095°07'0 0.0
2017-Dec-08 22:35N 29°46' W 095°07'1 0.4
2017-Dec-08 19:40N 29°45' W 095°06'2 6.8
2017-Dec-08 19:25N 29°44' W 095°08'3 6.7
2017-Dec-08 18:54N 29°44' W 095°12'3 6.2
2017-Dec-08 18:25N 29°44' W 095°15'2 2.0
2017-Dec-08 17:33N 29°44' W 095°17'1 5.7
2017-Dec-08 17:25N 29°44' W 095°17'1 1.2
2017-Dec-08 16:51N 29°44' W 095°16'1 2.9
2017-Dec-08 16:26N 29°43' W 095°14'3 5.9
2017-Dec-08 16:00N 29°44' W 095°12'3 5.9
2017-Dec-08 15:30N 29°44' W 095°09'3 0.4
2017-Dec-08 06:48N 29°46' W 095°05'2 5.9
2017-Dec-08 06:29N 29°44' W 095°07'4 6.3
2017-Dec-08 05:55N 29°45' W 095°11'3 6.1
2017-Dec-08 05:27N 29°44' W 095°14'2 3.7
2017-Dec-08 04:59N 29°44' W 095°16'0 0.5
2017-Dec-08 04:30N 29°44' W 095°15'3 5.8
2017-Dec-08 03:59N 29°44' W 095°12'2 1.2
2017-Dec-08 02:42N 29°45' W 095°11'0 0.2
2017-Dec-08 02:11N 29°45' W 095°10'0 0.5
2017-Dec-08 02:00N 29°45' W 095°11'2 3.8
2017-Dec-08 01:30N 29°44' W 095°09'3 4.6
2017-Dec-08 00:49N 29°46' W 095°06'1 2.0
2017-Dec-08 00:29N 29°46' W 095°05'3 6.7
2017-Dec-08 00:00N 29°44' W 095°09'2 2.7
2017-Dec-07 23:04N 29°46' W 095°11'1 3.1
2017-Dec-07 22:53N 29°45' W 095°10'0 1.2
2017-Dec-07 22:30N 29°45' W 095°10'4 0.8
2017-Dec-07 17:28N 29°46' W 095°05'3 5.6
2017-Dec-07 17:00N 29°44' W 095°03'3 5.3
2017-Dec-07 16:30N 29°42' W 095°01'2 4.9
2017-Dec-07 16:00N 29°41' W 094°58'2 3.8
2017-Dec-07 15:30N 29°41' W 094°56'1 3.0
2017-Dec-07 15:00N 29°42' W 094°55'1 1.7
2017-Dec-07 14:20N 29°43' W 094°56'1 0.1
2017-Dec-07 06:27N 29°43' W 094°57'2 3.0
2017-Dec-07 05:51N 29°42' W 094°55'1 3.0
2017-Dec-07 05:24N 29°41' W 094°56'1 3.4
2017-Dec-07 05:00N 29°41' W 094°57'3 6.0
2017-Dec-07 04:30N 29°42' W 095°00'2 3.3
2017-Dec-07 03:57N 29°44' W 095°02'2 3.4
2017-Dec-07 03:30N 29°42' W 095°01'3 5.9
2017-Dec-07 03:00N 29°41' W 094°58'2 3.9
2017-Dec-07 02:30N 29°41' W 094°55'  
2017-Dec-04 10:23N 29°45' W 095°12'0 0.0
2017-Dec-04 09:26N 29°45' W 095°12'0 0.0
2017-Dec-04 07:34N 29°45' W 095°12'0 0.0
2017-Dec-04 07:14N 29°45' W 095°12'0 0.0
2017-Dec-04 06:58N 29°45' W 095°12'0 0.0
2017-Dec-04 06:27N 29°45' W 095°12'0 0.0
2017-Dec-04 06:00N 29°45' W 095°12'0 0.0
2017-Dec-04 05:17N 29°45' W 095°12'0 0.0
2017-Dec-04 04:16N 29°45' W 095°12'0 0.0
2017-Dec-04 04:00N 29°45' W 095°12'0 0.0
2017-Dec-04 03:28N 29°45' W 095°12'0 0.0
2017-Dec-04 02:57N 29°45' W 095°12'0 0.0
2017-Dec-04 02:30N 29°45' W 095°12'0 0.0
2017-Dec-04 01:59N 29°45' W 095°12'0 0.0
2017-Dec-04 01:30N 29°45' W 095°12'0 0.0
2017-Dec-04 00:58N 29°45' W 095°12'0 0.0
2017-Dec-04 00:00N 29°45' W 095°12'0 0.0
2017-Dec-03 23:13N 29°45' W 095°12'0 0.0
2017-Dec-03 18:48N 29°45' W 095°12'0 0.0
2017-Dec-03 18:30N 29°45' W 095°12'0 0.0
2017-Dec-03 18:00N 29°45' W 095°12'0 0.0
2017-Dec-03 17:29N 29°45' W 095°12'2 3.0
2017-Dec-03 16:41N 29°43' W 095°14'1 1.8
2017-Dec-03 16:16N 29°44' W 095°15'0 1.2
2017-Dec-03 15:58N 29°43' W 095°15'3 3.6
2017-Dec-03 15:15N 29°44' W 095°12'2 3.9
2017-Dec-03 14:45N 29°45' W 095°10'1 3.8
2017-Dec-03 14:29N 29°44' W 095°09'3 0.3
2017-Dec-03 03:55N 29°46' W 095°06'1 1.4
2017-Dec-03 03:29N 29°46' W 095°05'3 5.7
2017-Dec-03 02:59N 29°44' W 095°08'3 3.7
2017-Dec-03 02:15N 29°45' W 095°11'1 2.3
2017-Dec-03 01:59N 29°45' W 095°10'2 3.4
2017-Dec-03 01:30N 29°45' W 095°12'2 3.9
2017-Dec-03 01:00N 29°44' W 095°09'4 3.1
2017-Dec-02 23:45N 29°47' W 095°06'0 0.0
2017-Dec-02 23:31N 29°47' W 095°06'3 0.8
2017-Dec-02 19:02N 29°44' W 095°08'0 8.1
2017-Dec-02 19:00N 29°44' W 095°09'4 6.5
2017-Dec-02 18:25N 29°43' W 095°13'2 5.8
2017-Dec-02 17:59N 29°44' W 095°16'3 5.2
2017-Dec-02 17:21N 29°44' W 095°12'2 6.3
2017-Dec-02 16:59N 29°44' W 095°09'3 0.6
2017-Dec-02 10:50N 29°46' W 095°06'3 4.4
2017-Dec-02 10:13N 29°44' W 095°08'3 6.0
2017-Dec-02 09:44N 29°45' W 095°11'1 6.1
2017-Dec-02 09:30N 29°44' W 095°13'3 2.6
2017-Dec-02 08:25N 29°44' W 095°16'2 5.2
2017-Dec-02 08:00N 29°43' W 095°13'3 5.8
2017-Dec-02 07:28N 29°45' W 095°10'3 6.0
2017-Dec-02 06:58N 29°44' W 095°07'2 3.2
2017-Dec-02 06:27N 29°46' W 095°06'0 0.1
2017-Dec-02 05:45N 29°46' W 095°06'1 2.1
2017-Dec-02 05:30N 29°46' W 095°05'1 0.1
2017-Dec-01 20:26N 29°46' W 095°04'3 5.9
2017-Dec-01 19:59N 29°44' W 095°02'3 6.0
2017-Dec-01 19:30N 29°42' W 094°60'2 3.5
2017-Dec-01 19:00N 29°41' W 094°58'2 3.4
2017-Dec-01 18:24N 29°41' W 094°55'2 1.6
2017-Dec-01 17:24N 29°42' W 094°56'  

Dump ship's entire track history